Time;durP1;ratioP1;P1;durP2;ratioP2;P2;SDS_P1;SDS_P2;PMS_P1;PMS_P2;Temp;Humidity;BMP_temperature;BMP_pressure;BME280_temperature;BME280_humidity;BME280_pressure;Samples;Min_cycle;Max_cycle;Signal;HPM_P1;HPM_P2
2022/03/19 00:01:03;;;;;;;42.80;17.30;;;;;;;-1.77;47.80;100797.70;105737;1278;138769;-76
2022/03/19 00:03:29;;;;;;;36.20;16.60;;;;;;;-1.81;47.98;100793.55;105882;1277;22726;-76
2022/03/19 00:05:56;;;;;;;30.50;13.70;;;;;;;-1.83;47.98;100789.48;105850;1277;138323;-77
2022/03/19 00:08:23;;;;;;;41.00;17.40;;;;;;;-1.84;47.72;100786.27;105783;1280;22662;-77
2022/03/19 00:10:50;;;;;;;34.00;15.90;;;;;;;-1.82;47.71;100781.52;105927;1280;25436;-77
2022/03/19 00:13:31;;;;;;;34.50;16.40;;;;;;;-1.80;47.62;100781.77;105841;1278;138061;-77
2022/03/19 00:15:57;;;;;;;34.50;16.70;;;;;;;-1.79;47.61;100781.68;105906;1278;25380;-77
2022/03/19 00:18:26;;;;;;;38.20;17.00;;;;;;;-1.79;47.48;100785.20;105783;1278;138121;-77
2022/03/19 00:20:53;;;;;;;36.70;17.90;;;;;;;-1.78;47.84;100787.85;106058;1277;22622;-77
2022/03/19 00:23:20;;;;;;;35.20;15.60;;;;;;;-1.80;47.66;100782.96;105707;1278;22761;-76
2022/03/19 00:25:46;;;;;;;39.60;17.90;;;;;;;-1.81;47.87;100776.48;105444;1280;137941;-76
2022/03/19 00:28:15;;;;;;;38.40;18.10;;;;;;;-1.81;47.57;100775.25;105930;1278;22727;-76
2022/03/19 00:30:41;;;;;;;37.30;17.20;;;;;;;-1.80;47.49;100776.78;105653;1280;138069;-76
2022/03/19 00:33:07;;;;;;;40.90;19.00;;;;;;;-1.81;47.39;100776.48;105883;1280;22537;-76
2022/03/19 00:35:37;;;;;;;31.50;16.20;;;;;;;-1.83;47.81;100774.09;105835;1280;138728;-76
2022/03/19 00:38:04;;;;;;;38.70;17.00;;;;;;;-1.86;48.08;100776.11;105592;1280;24269;-76
2022/03/19 00:40:34;;;;;;;33.90;16.20;;;;;;;-1.89;48.19;100777.41;105814;1277;25439;-76
2022/03/19 00:43:00;;;;;;;30.20;14.60;;;;;;;-1.92;48.18;100773.70;105668;1280;138637;-75
2022/03/19 00:45:42;;;;;;;29.50;14.80;;;;;;;-1.94;48.34;100775.56;105792;1280;25505;-75
2022/03/19 00:48:08;;;;;;;41.20;18.10;;;;;;;-1.96;47.92;100775.93;105571;1280;138804;-75
2022/03/19 00:50:34;;;;;;;36.90;16.40;;;;;;;-1.98;47.74;100772.52;105799;1280;25481;-76
2022/03/19 00:53:15;;;;;;;36.50;16.70;;;;;;;-1.98;48.28;100765.05;105737;1279;22547;-76
2022/03/19 00:55:43;;;;;;;34.40;16.70;;;;;;;-1.99;48.04;100761.40;105710;1278;138052;-76
2022/03/19 00:58:12;;;;;;;34.10;17.80;;;;;;;-2.00;48.46;100757.01;105697;1280;22562;-76
2022/03/19 01:00:38;;;;;;;47.00;18.50;;;;;;;-2.01;48.30;100751.05;105750;1280;138602;-76
2022/03/19 01:03:06;;;;;;;35.30;16.70;;;;;;;-2.02;48.23;100747.90;105931;1280;25359;-78
2022/03/19 01:05:32;;;;;;;31.30;15.00;;;;;;;-2.03;48.32;100742.21;105870;1280;24229;-76
2022/03/19 01:07:58;;;;;;;36.20;17.60;;;;;;;-2.03;48.47;100739.56;105794;1278;138107;-76
2022/03/19 01:10:28;;;;;;;39.70;17.60;;;;;;;-2.04;48.36;100739.84;105951;1280;24387;-75
2022/03/19 01:12:56;;;;;;;38.40;17.80;;;;;;;-2.05;48.45;100739.69;105852;1280;137906;-76
2022/03/19 01:15:23;;;;;;;36.40;16.40;;;;;;;-2.05;48.44;100740.77;105907;1280;22562;-76
2022/03/19 01:17:51;;;;;;;41.20;18.30;;;;;;;-2.05;48.57;100744.73;105818;1280;138241;-76
2022/03/19 01:20:17;;;;;;;40.40;19.50;;;;;;;-2.07;48.70;100743.27;105827;1280;25383;-75
2022/03/19 01:22:46;;;;;;;37.60;17.30;;;;;;;-2.11;48.38;100741.71;105951;1280;22786;-75
2022/03/19 01:25:13;;;;;;;33.70;17.20;;;;;;;-2.15;48.65;100738.77;106095;1278;138492;-75
2022/03/19 01:27:41;;;;;;;38.90;17.70;;;;;;;-2.18;48.97;100738.85;105868;1280;24329;-75
2022/03/19 01:30:22;;;;;;;33.90;16.00;;;;;;;-2.22;49.08;100741.25;105809;1278;138908;-75
2022/03/19 01:32:50;;;;;;;46.10;19.80;;;;;;;-2.28;49.94;100747.20;105804;1280;24321;-75
2022/03/19 01:35:18;;;;;;;39.50;18.60;;;;;;;-2.35;50.36;100745.34;105884;1280;24345;-75
2022/03/19 01:37:45;;;;;;;40.30;19.10;;;;;;;-2.41;49.87;100745.55;105777;1277;138120;-75
2022/03/19 01:40:14;;;;;;;41.00;19.50;;;;;;;-2.45;50.07;100737.89;105981;1278;22632;-75
2022/03/19 01:42:43;;;;;;;36.60;17.90;;;;;;;-2.50;50.73;100737.29;105592;1278;138003;-75
2022/03/19 01:45:14;;;;;;;44.10;18.90;;;;;;;-2.56;50.88;100737.14;105906;1279;22563;-75
2022/03/19 01:47:41;;;;;;;38.20;17.80;;;;;;;-2.61;50.95;100731.63;105785;1280;138677;-75
2022/03/19 01:50:08;;;;;;;37.30;17.30;;;;;;;-2.64;51.07;100732.75;105910;1280;23956;-75
2022/03/19 01:52:35;;;;;;;33.20;16.40;;;;;;;-2.68;50.88;100731.74;105746;1280;22564;-75
2022/03/19 01:55:20;;;;;;;34.90;16.60;;;;;;;-2.72;50.73;100728.96;105667;1277;138762;-75
2022/03/19 01:57:48;;;;;;;47.00;20.30;;;;;;;-2.74;50.91;100724.35;105499;1280;24295;-74
2022/03/19 02:00:21;;;;;;;36.50;17.50;;;;;;;-2.76;50.76;100723.55;105624;1280;138272;-74
2022/03/19 02:02:49;;;;;;;40.90;17.70;;;;;;;-2.77;50.73;100728.82;105955;1280;25267;-74
2022/03/19 02:05:18;;;;;;;40.50;18.10;;;;;;;-2.79;51.24;100730.56;105927;1280;24349;-74
2022/03/19 02:07:46;;;;;;;38.90;17.50;;;;;;;-2.82;51.05;100728.60;105781;1280;138578;-74
2022/03/19 02:10:14;;;;;;;38.20;18.40;;;;;;;-2.85;51.16;100731.09;105861;1280;22568;-74
2022/03/19 02:12:41;;;;;;;34.00;17.00;;;;;;;-2.88;51.53;100727.73;106010;1277;138581;-74
2022/03/19 02:15:10;;;;;;;38.30;17.30;;;;;;;-2.91;51.69;100727.02;105782;1279;23982;-74
2022/03/19 02:17:36;;;;;;;37.90;17.20;;;;;;;-2.95;51.47;100726.09;106063;1279;22636;-74
2022/03/19 02:20:04;;;;;;;39.60;16.70;;;;;;;-2.98;51.69;100733.55;105886;1280;138270;-73
2022/03/19 02:22:31;;;;;;;35.90;17.60;;;;;;;-3.00;52.27;100734.60;105843;1280;22559;-73
2022/03/19 02:27:44;;;;;;;37.70;17.90;;;;;;;-3.08;52.13;100746.10;105911;1278;22704;-73
2022/03/19 02:30:12;;;;;;;32.70;17.20;;;;;;;-3.11;52.10;100752.14;105752;1278;138165;-73
2022/03/19 02:32:53;;;;;;;39.50;18.20;;;;;;;-3.13;51.92;100750.88;105787;1280;22542;-73
2022/03/19 02:35:20;;;;;;;41.20;19.40;;;;;;;-3.15;51.75;100748.02;105819;1280;24436;-73
2022/03/19 02:38:00;;;;;;;33.70;14.70;;;;;;;-3.16;51.94;100747.20;105617;1280;138252;-73
2022/03/19 02:40:27;;;;;;;38.60;17.60;;;;;;;-3.19;53.07;100746.68;105920;1280;22701;-73
2022/03/19 02:42:56;;;;;;;44.80;19.80;;;;;;;-3.22;53.28;100746.49;105793;1278;138279;-73
2022/03/19 02:45:24;;;;;;;45.80;20.70;;;;;;;-3.24;53.01;100744.88;106118;1280;22576;-73
2022/03/19 02:48:04;;;;;;;46.00;20.70;;;;;;;-3.27;53.17;100745.56;105675;1279;138324;-73
2022/03/19 02:50:37;;;;;;;45.80;19.50;;;;;;;-3.28;53.46;100744.40;105785;1280;22796;-73
2022/03/19 02:53:08;;;;;;;39.90;17.80;;;;;;;-3.29;52.82;100744.64;105859;1280;22574;-73
2022/03/19 02:55:37;;;;;;;36.70;17.20;;;;;;;-3.31;53.06;100745.69;105617;1280;138209;-73
2022/03/19 02:58:05;;;;;;;41.30;18.70;;;;;;;-3.35;53.66;100745.56;105604;1281;22807;-73
2022/03/19 03:00:32;;;;;;;39.10;17.70;;;;;;;-3.38;53.60;100751.79;105494;1279;138376;-73
2022/03/19 03:03:00;;;;;;;38.80;17.90;;;;;;;-3.41;53.70;100746.27;105682;1280;22600;-73
2022/03/19 03:05:26;;;;;;;35.70;15.80;;;;;;;-3.42;53.89;100740.52;105699;1278;25319;-73
2022/03/19 03:07:52;;;;;;;37.70;16.80;;;;;;;-3.43;53.83;100741.63;105640;1278;138338;-73
2022/03/19 03:10:19;;;;;;;34.90;16.90;;;;;;;-3.43;53.55;100740.55;105712;1280;24312;-73
2022/03/19 03:12:45;;;;;;;44.00;20.00;;;;;;;-3.41;53.54;100742.45;105494;1280;138598;-73
2022/03/19 03:15:11;;;;;;;43.20;18.20;;;;;;;-3.40;53.69;100740.95;105650;1280;24391;-73
2022/03/19 03:17:39;;;;;;;41.40;16.80;;;;;;;-3.39;53.79;100742.48;105681;1280;22548;-73
2022/03/19 03:20:06;;;;;;;36.00;17.20;;;;;;;-3.38;53.91;100745.59;105467;1280;138542;-73
2022/03/19 03:22:47;;;;;;;37.40;17.50;;;;;;;-3.38;53.88;100738.51;105552;1280;24318;-73
2022/03/19 03:25:14;;;;;;;40.70;17.00;;;;;;;-3.40;54.05;100738.09;105566;1280;138707;-73
2022/03/19 03:27:40;;;;;;;43.40;18.80;;;;;;;-3.43;54.29;100735.23;105637;1280;22572;-73
2022/03/19 03:30:07;;;;;;;37.30;17.40;;;;;;;-3.46;54.40;100731.67;105669;1279;140335;-73
2022/03/19 03:32:33;;;;;;;46.20;20.80;;;;;;;-3.48;54.44;100728.98;105865;1280;25440;-73
2022/03/19 03:34:59;;;;;;;44.90;19.70;;;;;;;-3.48;54.75;100730.43;105846;1278;24222;-73
2022/03/19 03:37:26;;;;;;;46.80;19.20;;;;;;;-3.49;54.42;100729.59;105706;1278;138137;-73
2022/03/19 03:39:52;;;;;;;42.40;18.10;;;;;;;-3.50;54.67;100731.99;105933;1280;25325;-74
2022/03/19 03:42:18;;;;;;;45.40;20.20;;;;;;;-3.51;54.88;100730.23;105695;1278;138656;-74
2022/03/19 03:44:45;;;;;;;44.80;18.40;;;;;;;-3.51;54.75;100729.03;105963;1279;25269;-75
2022/03/19 03:47:26;;;;;;;40.60;18.80;;;;;;;-3.52;54.92;100726.94;105868;1280;22570;-74
2022/03/19 03:49:53;;;;;;;44.70;20.40;;;;;;;-3.53;54.90;100732.88;105817;1280;138558;-75
2022/03/19 03:52:34;;;;;;;42.90;18.80;;;;;;;-3.56;54.94;100733.23;105646;1280;25256;-75
2022/03/19 03:55:01;;;;;;;35.00;16.80;;;;;;;-3.60;54.39;100732.58;105725;1280;138012;-75
2022/03/19 03:57:42;;;;;;;42.90;18.90;;;;;;;-3.64;55.06;100732.82;105838;1280;22726;-75
2022/03/19 04:00:09;;;;;;;41.50;19.10;;;;;;;-3.67;54.77;100731.11;105558;1280;138844;-76
2022/03/19 04:02:41;;;;;;;41.00;18.00;;;;;;;-3.72;55.18;100730.38;105827;1277;24425;-79
2022/03/19 04:05:09;;;;;;;40.90;19.20;;;;;;;-3.77;55.29;100727.84;105691;1280;24234;-77
2022/03/19 04:07:35;;;;;;;40.10;17.60;;;;;;;-3.82;55.33;100732.73;105625;1278;137989;-76
2022/03/19 04:10:02;;;;;;;37.90;18.00;;;;;;;-3.86;55.73;100731.77;105950;1280;22615;-75
2022/03/19 04:12:28;;;;;;;47.00;20.30;;;;;;;-3.90;56.13;100738.02;105593;1280;138344;-73
2022/03/19 04:14:55;;;;;;;47.50;20.60;;;;;;;-3.92;56.13;100739.56;105860;1280;23059;-74
2022/03/19 04:17:22;;;;;;;38.80;20.00;;;;;;;-3.95;56.22;100744.00;105903;1280;22533;-73
2022/03/19 04:19:49;;;;;;;42.00;20.30;;;;;;;-3.97;56.13;100747.50;106039;1278;138244;-73
2022/03/19 04:22:15;;;;;;;41.80;18.50;;;;;;;-4.00;56.59;100744.35;105897;1280;22557;-73
2022/03/19 04:24:56;;;;;;;50.70;21.10;;;;;;;-4.04;56.39;100746.54;105799;1278;138221;-74
2022/03/19 04:27:22;;;;;;;40.70;19.90;;;;;;;-4.07;56.64;100754.35;105869;1278;22557;-75
2022/03/19 04:29:49;;;;;;;40.50;19.00;;;;;;;-4.10;56.54;100753.98;105748;1280;22560;-75
2022/03/19 04:32:30;;;;;;;46.20;20.50;;;;;;;-4.13;56.73;100754.21;105509;1280;138625;-74
2022/03/19 04:34:57;;;;;;;47.10;19.20;;;;;;;-4.18;56.86;100753.95;105902;1280;25471;-74
2022/03/19 04:37:23;;;;;;;47.30;19.70;;;;;;;-4.21;56.74;100759.06;105630;1280;138230;-74
2022/03/19 04:39:49;;;;;;;46.20;19.60;;;;;;;-4.24;57.11;100762.27;105714;1280;25394;-74
2022/03/19 04:42:16;;;;;;;48.40;20.60;;;;;;;-4.27;57.26;100762.81;105692;1280;138384;-74
2022/03/19 04:44:43;;;;;;;46.80;20.10;;;;;;;-4.29;57.74;100762.45;105916;1278;22560;-74
2022/03/19 04:47:09;;;;;;;54.20;20.20;;;;;;;-4.32;57.82;100764.39;105800;1280;24248;-74
2022/03/19 04:49:35;;;;;;;46.60;19.40;;;;;;;-4.35;57.47;100764.93;105720;1278;138111;-74
2022/03/19 04:52:01;;;;;;;51.40;19.10;;;;;;;-4.38;57.78;100766.33;106084;1277;22696;-74
2022/03/19 04:54:27;;;;;;;41.00;19.50;;;;;;;-4.41;58.01;100770.55;105739;1277;138205;-74
2022/03/19 04:56:54;;;;;;;42.30;20.10;;;;;;;-4.41;58.30;100772.34;106037;1278;22607;-74
2022/03/19 04:59:20;;;;;;;41.30;18.80;;;;;;;-4.42;58.14;100772.02;105931;1278;24402;-74
2022/03/19 05:01:46;;;;;;;40.40;19.30;;;;;;;-4.43;58.53;100775.13;105647;1280;138341;-74
2022/03/19 05:04:12;;;;;;;41.60;20.00;;;;;;;-4.43;58.60;100774.23;105879;1278;24270;-74
2022/03/19 05:06:39;;;;;;;39.90;18.80;;;;;;;-4.42;58.81;100776.13;105931;1278;141045;-74
2022/03/19 05:11:50;;;;;;;38.70;19.20;;;;;;;-4.43;59.17;100777.08;105894;1277;22578;-74
2022/03/19 05:14:16;;;;;;;39.60;19.70;;;;;;;-4.44;59.06;100774.11;105906;1278;138344;-76
2022/03/19 05:16:42;;;;;;;44.30;19.50;;;;;;;-4.43;59.46;100778.52;105742;1280;24226;-74
2022/03/19 05:19:09;;;;;;;44.10;19.90;;;;;;;-4.43;59.58;100779.70;105736;1277;142012;-74
2022/03/19 05:21:35;;;;;;;47.90;22.80;;;;;;;-4.42;59.54;100778.95;105812;1280;24427;-74
2022/03/19 05:24:01;;;;;;;43.60;19.50;;;;;;;-4.41;59.98;100784.21;105881;1277;22589;-74
2022/03/19 05:26:28;;;;;;;40.10;16.40;;;;;;;-4.40;59.90;100786.11;105563;1281;138693;-74
2022/03/19 05:29:11;;;;;;;36.00;16.90;;;;;;;-4.37;60.47;100790.59;105796;1278;22570;-74
2022/03/19 05:31:38;;;;;;;41.70;18.80;;;;;;;-4.35;60.57;100789.92;105677;1280;138562;-74
2022/03/19 05:36:49;;;;;;;39.30;17.50;;;;;;;-4.29;60.92;100794.84;105706;1278;138969;-74
2022/03/19 05:39:15;;;;;;;44.90;18.80;;;;;;;-4.26;61.36;100799.30;105982;1278;23269;-74
2022/03/19 05:41:41;;;;;;;45.40;20.70;;;;;;;-4.22;60.98;100803.30;105873;1278;22545;-74
2022/03/19 05:44:07;;;;;;;33.60;16.30;;;;;;;-4.17;60.49;100805.14;105670;1280;138325;-74
2022/03/19 05:46:34;;;;;;;37.80;16.80;;;;;;;-4.10;60.17;100803.84;105867;1278;22708;-74
2022/03/19 05:49:00;;;;;;;40.20;19.40;;;;;;;-4.03;60.02;100802.52;105861;1277;138907;-74
2022/03/19 05:51:27;;;;;;;43.90;20.00;;;;;;;-3.95;59.72;100800.09;106089;1278;24386;-74
2022/03/19 05:53:53;;;;;;;39.90;18.20;;;;;;;-3.85;59.63;100802.30;105742;1278;22586;-74
2022/03/19 05:56:19;;;;;;;43.50;19.10;;;;;;;-3.76;59.06;100803.88;105730;1278;139046;-74
2022/03/19 05:58:45;;;;;;;40.20;19.20;;;;;;;-3.65;59.27;100805.36;106161;1278;25251;-74
2022/03/19 06:01:11;;;;;;;41.40;19.70;;;;;;;-3.56;59.15;100809.60;105642;1280;138546;-74
2022/03/19 06:03:38;;;;;;;49.10;20.90;;;;;;;-3.46;58.66;100810.59;105922;1277;22582;-74
2022/03/19 06:06:05;;;;;;;49.20;20.90;;;;;;;-3.38;59.28;100815.73;105770;1278;22588;-74
2022/03/19 06:08:31;;;;;;;44.40;21.10;;;;;;;-3.30;59.89;100818.92;105920;1278;137818;-74
2022/03/19 06:10:58;;;;;;;40.80;20.10;;;;;;;-3.22;59.13;100818.83;105951;1277;22547;-74
2022/03/19 06:13:26;;;;;;;42.10;22.10;;;;;;;-3.14;59.25;100820.45;105727;1278;138104;-74
2022/03/19 06:15:53;;;;;;;40.00;19.60;;;;;;;-3.08;59.16;100817.71;105885;1280;25392;-74
2022/03/19 06:18:34;;;;;;;40.10;17.90;;;;;;;-2.98;58.33;100823.32;105718;1279;141222;-74
2022/03/19 06:21:00;;;;;;;45.60;20.50;;;;;;;-2.90;57.84;100822.63;106271;1278;22716;-74
2022/03/19 06:23:26;;;;;;;44.50;20.40;;;;;;;-2.81;57.30;100821.50;105985;1278;22722;-74
2022/03/19 06:25:53;;;;;;;46.70;22.60;;;;;;;-2.72;58.27;100825.90;105882;1277;138343;-74
2022/03/19 06:28:19;;;;;;;45.90;22.30;;;;;;;-2.66;57.89;100827.61;105846;1278;22564;-74
2022/03/19 06:30:46;;;;;;;43.90;22.00;;;;;;;-2.59;57.76;100827.14;106009;1278;138959;-74
2022/03/19 06:33:12;;;;;;;46.50;21.60;;;;;;;-2.50;57.32;100832.10;106001;1277;24302;-74
2022/03/19 06:38:27;;;;;;;46.40;21.10;;;;;;;-2.35;57.28;100825.95;105877;1277;138360;-74
2022/03/19 06:40:54;;;;;;;50.90;23.70;;;;;;;-2.29;57.00;100825.13;106032;1277;24558;-74
2022/03/19 06:43:35;;;;;;;37.00;17.50;;;;;;;-2.19;56.43;100828.24;105629;1277;138149;-74
2022/03/19 06:46:01;;;;;;;47.80;22.50;;;;;;;-2.11;56.10;100831.92;105935;1277;25358;-74
2022/03/19 06:48:27;;;;;;;50.10;22.70;;;;;;;-2.01;56.06;100831.98;105712;1277;138337;-74
2022/03/19 06:50:55;;;;;;;45.30;21.50;;;;;;;-1.92;55.95;100828.90;105872;1280;24236;-74
2022/03/19 06:53:23;;;;;;;47.40;20.70;;;;;;;-1.82;55.37;100831.77;105601;1280;25318;-74
2022/03/19 06:55:50;;;;;;;42.70;19.90;;;;;;;-1.74;54.87;100826.55;105526;1280;138069;-74
2022/03/19 06:58:17;;;;;;;44.30;21.50;;;;;;;-1.67;54.92;100826.77;105631;1280;22562;-74
2022/03/19 07:00:44;;;;;;;42.40;21.80;;;;;;;-1.59;54.64;100831.56;105847;1278;138387;-74
2022/03/19 07:03:10;;;;;;;49.10;23.60;;;;;;;-1.50;54.51;100838.44;105949;1278;24226;-74
2022/03/19 07:05:36;;;;;;;39.60;20.90;;;;;;;-1.42;54.77;100836.63;105886;1278;22566;-74
2022/03/19 07:08:03;;;;;;;48.00;24.30;;;;;;;-1.34;54.58;100837.63;105668;1278;140735;-74
2022/03/19 07:10:29;;;;;;;40.80;22.70;;;;;;;-1.25;53.98;100837.89;105660;1281;22574;-74
2022/03/19 07:12:57;;;;;;;42.50;22.70;;;;;;;-1.18;53.75;100834.86;105615;1281;138512;-74
2022/03/19 07:15:28;;;;;;;45.60;22.00;;;;;;;-1.10;53.63;100837.52;105914;1280;22589;-74
2022/03/19 07:17:56;;;;;;;44.30;21.60;;;;;;;-1.02;53.90;100837.48;105899;1278;25378;-74
2022/03/19 07:20:23;;;;;;;41.20;21.30;;;;;;;-0.93;53.64;100836.52;105815;1278;137942;-74
2022/03/19 07:22:49;;;;;;;46.50;23.80;;;;;;;-0.86;53.59;100834.38;105646;1278;23355;-74
2022/03/19 07:25:17;;;;;;;39.10;21.70;;;;;;;-0.77;53.59;100837.13;105679;1278;137940;-74
2022/03/19 07:27:43;;;;;;;41.20;21.10;;;;;;;-0.69;53.35;100836.52;105802;1278;22532;-74
2022/03/19 07:30:11;;;;;;;43.70;21.20;;;;;;;-0.61;52.97;100835.02;105837;1278;25257;-74
2022/03/19 07:32:37;;;;;;;42.20;21.20;;;;;;;-0.53;52.76;100834.40;105870;1278;137723;-74
2022/03/19 07:35:06;;;;;;;41.00;21.70;;;;;;;-0.44;52.39;100834.65;105786;1281;24267;-74
2022/03/19 07:37:33;;;;;;;41.10;18.90;;;;;;;-0.36;52.56;100830.48;105512;1280;137914;-75
2022/03/19 07:40:01;;;;;;;35.40;18.10;;;;;;;-0.26;52.52;100832.41;105963;1278;22566;-74
2022/03/19 07:42:27;;;;;;;39.10;19.80;;;;;;;-0.17;52.24;100833.48;105773;1281;138541;-74
2022/03/19 07:44:53;;;;;;;39.20;19.30;;;;;;;-0.08;51.65;100831.89;105530;1281;22570;-74
2022/03/19 07:47:20;;;;;;;32.80;17.40;;;;;;;0.03;51.56;100831.29;105780;1280;25438;-74
2022/03/19 07:49:47;;;;;;;30.00;17.50;;;;;;;0.12;51.28;100831.79;105796;1277;138269;-74
2022/03/19 07:52:13;;;;;;;36.50;18.80;;;;;;;0.22;50.94;100831.73;105664;1277;22578;-74
2022/03/19 07:54:40;;;;;;;34.70;17.70;;;;;;;0.33;50.75;100833.95;105750;1277;137868;-74
2022/03/19 07:57:11;;;;;;;35.50;17.90;;;;;;;0.44;50.31;100832.55;105804;1278;22577;-74
2022/03/19 07:59:38;;;;;;;32.60;16.20;;;;;;;0.54;50.15;100833.94;105894;1277;22576;-74
2022/03/19 08:02:05;;;;;;;33.00;17.20;;;;;;;0.64;50.16;100837.81;105585;1281;137883;-74
2022/03/19 08:04:32;;;;;;;32.10;17.80;;;;;;;0.74;49.76;100832.13;105748;1277;22693;-74
2022/03/19 08:06:58;;;;;;;35.20;18.00;;;;;;;0.87;49.21;100830.58;105742;1278;138096;-74
2022/03/19 08:09:25;;;;;;;35.40;16.70;;;;;;;0.99;49.45;100833.20;105859;1278;24096;-74
2022/03/19 08:11:52;;;;;;;35.90;18.20;;;;;;;1.12;48.92;100831.03;105797;1278;22576;-75
2022/03/19 08:14:19;;;;;;;35.90;17.70;;;;;;;1.25;48.55;100829.45;106688;1278;137787;-74
2022/03/19 08:16:49;;;;;;;29.40;16.70;;;;;;;1.39;48.11;100827.77;105825;1277;312405;-74
2022/03/19 08:19:15;;;;;;;31.10;17.50;;;;;;;1.53;47.62;100829.87;106376;1277;137873;-74
2022/03/19 08:21:46;;;;;;;30.60;16.70;;;;;;;1.65;47.41;100825.42;106128;1278;24247;-74
2022/03/19 08:24:12;;;;;;;31.30;16.90;;;;;;;1.78;47.34;100827.56;106093;1278;22573;-74
2022/03/19 08:26:39;;;;;;;35.20;17.30;;;;;;;1.91;47.08;100823.96;105851;1278;137544;-73
2022/03/19 08:29:06;;;;;;;29.60;16.20;;;;;;;2.04;46.42;100825.16;105882;1277;24221;-73
2022/03/19 08:31:33;;;;;;;29.70;15.80;;;;;;;2.16;45.87;100821.83;105673;1278;137671;-75
2022/03/19 08:34:00;;;;;;;30.60;15.30;;;;;;;2.28;44.94;100826.77;105855;1278;22716;-71
2022/03/19 08:36:26;;;;;;;26.10;13.90;;;;;;;2.37;44.68;100824.48;105832;1278;138038;-74
2022/03/19 08:41:37;;;;;;;23.50;13.00;;;;;;;2.63;43.60;100821.35;105995;1278;22646;-75
2022/03/19 08:44:05;;;;;;;24.20;13.10;;;;;;;2.76;43.47;100821.47;105706;1278;136948;-73
2022/03/19 08:46:35;;;;;;;24.00;13.20;;;;;;;2.89;42.80;100819.78;106052;1277;22570;-75
2022/03/19 08:49:08;;;;;;;21.90;14.10;;;;;;;3.03;42.63;100823.94;105826;1277;138334;-74
2022/03/19 08:51:40;;;;;;;26.40;13.20;;;;;;;3.15;41.97;100822.43;105810;1278;25675;-74
2022/03/19 08:54:15;;;;;;;25.80;13.80;;;;;;;3.27;41.68;100820.69;105746;1277;22829;-73
2022/03/19 08:56:51;;;;;;;23.00;13.90;;;;;;;3.38;40.93;100821.64;105805;1278;137678;-75
2022/03/19 08:59:32;;;;;;;22.40;14.20;;;;;;;3.50;40.37;100823.30;105939;1277;22578;-74
2022/03/19 09:01:59;;;;;;;23.50;12.70;;;;;;;3.60;40.61;100821.23;106061;1278;138035;-74
2022/03/19 09:04:25;;;;;;;23.00;13.50;;;;;;;3.72;39.76;100812.48;105989;1278;30313;-74
2022/03/19 09:06:51;;;;;;;24.10;13.50;;;;;;;3.81;39.73;100809.03;105811;1277;138021;-74
2022/03/19 09:09:19;;;;;;;23.80;13.10;;;;;;;3.94;40.06;100812.34;105888;1280;22704;-75
2022/03/19 09:11:48;;;;;;;24.30;13.90;;;;;;;4.07;39.54;100812.07;105946;1277;22616;-75
2022/03/19 09:14:16;;;;;;;19.60;11.10;;;;;;;4.20;38.92;100807.98;105941;1277;138493;-74
2022/03/19 09:16:43;;;;;;;16.80;10.40;;;;;;;4.30;38.04;100805.89;106088;1278;22677;-75
2022/03/19 09:19:10;;;;;;;20.80;11.70;;;;;;;4.41;38.07;100810.05;105978;1277;137754;-74
2022/03/19 09:21:50;;;;;;;24.60;12.90;;;;;;;4.53;37.29;100806.04;105850;1281;24229;-75
2022/03/19 09:24:17;;;;;;;18.50;11.90;;;;;;;4.63;36.57;100804.22;105917;1277;25263;-75
2022/03/19 09:26:44;;;;;;;21.60;11.70;;;;;;;4.71;36.50;100804.12;106118;1277;137730;-75
2022/03/19 09:29:10;;;;;;;21.40;11.30;;;;;;;4.80;35.81;100807.23;105893;1280;24505;-75
2022/03/19 09:31:36;;;;;;;19.20;11.30;;;;;;;4.90;35.27;100805.38;105402;1281;137816;-75
2022/03/19 09:34:03;;;;;;;21.40;11.90;;;;;;;4.99;35.16;100808.10;105583;1277;22580;-76
2022/03/19 09:36:29;;;;;;;19.00;11.60;;;;;;;5.10;35.33;100807.75;105731;1278;138527;-76
2022/03/19 09:38:55;;;;;;;21.10;11.90;;;;;;;5.21;34.80;100812.46;105791;1278;22547;-76
2022/03/19 09:41:22;;;;;;;22.40;11.70;;;;;;;5.27;33.90;100813.21;106165;1277;22588;-76
2022/03/19 09:43:48;;;;;;;17.00;10.40;;;;;;;5.33;33.82;100816.76;105942;1277;138094;-77
2022/03/19 09:46:16;;;;;;;22.20;12.20;;;;;;;5.42;34.13;100812.88;105776;1281;22572;-77
2022/03/19 09:48:42;;;;;;;22.40;11.80;;;;;;;5.51;34.33;100812.85;105843;1277;137882;-77
2022/03/19 09:51:09;;;;;;;19.20;11.80;;;;;;;5.63;34.31;100811.11;105746;1280;22634;-77
2022/03/19 09:53:36;;;;;;;20.40;11.70;;;;;;;5.74;33.62;100813.95;106155;1278;22567;-77
2022/03/19 09:56:03;;;;;;;20.90;12.20;;;;;;;5.84;33.56;100816.16;105885;1277;137814;-76
2022/03/19 09:58:29;;;;;;;22.10;13.30;;;;;;;5.94;33.96;100812.14;105916;1277;25264;-77
2022/03/19 10:01:03;;;;;;;26.10;12.70;;;;;;;6.04;33.68;100804.12;105902;1277;138977;-76
2022/03/19 10:03:39;;;;;;;20.90;12.60;;;;;;;6.14;33.80;100803.41;105988;1278;22572;-77
2022/03/19 10:09:00;;;;;;;23.10;11.60;;;;;;;6.42;33.09;100802.30;105670;1278;137659;-76
2022/03/19 10:11:34;;;;;;;20.80;12.50;;;;;;;6.49;32.68;100797.44;105787;1280;25266;-75
2022/03/19 10:14:05;;;;;;;24.10;13.00;;;;;;;6.58;32.51;100799.95;105692;1280;137758;-75
2022/03/19 10:16:35;;;;;;;20.70;12.20;;;;;;;6.69;32.77;100802.65;105884;1277;25274;-75
2022/03/19 10:19:04;;;;;;;19.00;11.70;;;;;;;6.77;32.74;100801.07;105942;1277;137918;-75
2022/03/19 10:21:35;;;;;;;;;;;;;;;6.86;31.28;100792.58;105814;1280;24371;-75
2022/03/19 10:24:01;;;;;;;16.60;9.60;;;;;;;6.92;31.08;100796.08;106077;1277;25538;-75
2022/03/19 10:26:34;;;;;;;16.30;10.60;;;;;;;7.00;30.81;100797.13;105584;1278;137825;-75
2022/03/19 10:29:04;;;;;;;18.30;10.50;;;;;;;7.08;30.36;100793.13;105817;1278;24238;-75
2022/03/19 10:31:50;;;;;;;18.70;11.00;;;;;;;7.13;30.38;100800.08;105789;1278;137689;-75
2022/03/19 10:34:16;;;;;;;17.40;11.20;;;;;;;7.23;30.18;100801.16;106167;1277;25362;-75
2022/03/19 10:36:44;;;;;;;19.70;11.20;;;;;;;7.32;30.11;100799.35;105839;1277;138188;-74
2022/03/19 10:39:26;;;;;;;20.30;10.80;;;;;;;7.41;30.16;100796.02;105863;1277;22569;-75
2022/03/19 10:41:58;;;;;;;24.10;11.40;;;;;;;7.49;29.97;100792.73;106012;1277;24390;-75
2022/03/19 10:44:39;;;;;;;19.90;11.70;;;;;;;7.58;30.28;100792.00;105640;1280;138237;-75
2022/03/19 10:47:05;;;;;;;19.50;11.40;;;;;;;7.66;30.31;100792.55;105785;1280;22570;-75
2022/03/19 10:49:32;;;;;;;18.10;10.70;;;;;;;7.72;30.11;100793.77;105648;1281;137744;-75
2022/03/19 10:52:04;;;;;;;13.70;8.80;;;;;;;7.78;29.67;100786.02;105661;1280;24230;-75
2022/03/19 10:54:30;;;;;;;12.10;8.30;;;;;;;7.85;29.15;100782.33;105632;1278;22599;-75
2022/03/19 10:56:57;;;;;;;13.20;7.20;;;;;;;7.95;28.66;100779.04;105446;1278;137462;-74
2022/03/19 10:59:24;;;;;;;12.50;8.40;;;;;;;8.07;28.49;100779.36;105754;1277;24938;-74
2022/03/19 11:01:55;;;;;;;12.80;8.30;;;;;;;8.16;27.71;100780.95;105715;1277;137419;-74
2022/03/19 11:04:22;;;;;;;11.50;7.90;;;;;;;8.23;27.74;100780.46;105713;1280;22570;-74
2022/03/19 11:06:52;;;;;;;18.20;9.00;;;;;;;8.27;27.66;100779.84;105843;1278;137809;-74
2022/03/19 11:09:22;;;;;;;14.50;8.20;;;;;;;8.29;27.47;100772.92;105557;1278;25410;-76
2022/03/19 11:11:55;;;;;;;13.90;8.60;;;;;;;8.31;27.22;100775.21;105817;1277;24631;-74
2022/03/19 11:14:24;;;;;;;15.50;7.80;;;;;;;8.34;27.35;100772.91;105562;1277;138528;-74
2022/03/19 11:17:25;;;;;;;13.20;7.90;;;;;;;8.40;26.97;100769.40;105892;1278;22566;-74
2022/03/19 11:19:53;;;;;;;13.90;7.10;;;;;;;8.48;27.07;100766.14;105601;1277;137725;-74
2022/03/19 11:22:21;;;;;;;10.90;7.90;;;;;;;8.52;26.67;100760.70;105704;1278;24315;-75
2022/03/19 11:25:26;;;;;;;14.30;7.10;;;;;;;8.60;26.52;100760.81;105841;1277;137869;-75